createdAt,value
2018-12-30T00:00:20.177Z,7.40
2018-12-30T00:02:48.584Z,10.13
2018-12-30T00:05:17.584Z,6.87
2018-12-30T00:07:46.078Z,8.03
2018-12-30T00:10:14.473Z,3.77
2018-12-30T00:12:42.956Z,4.70
2018-12-30T00:15:11.687Z,6.13
2018-12-30T00:17:40.192Z,4.43
2018-12-30T00:20:08.564Z,4.97
2018-12-30T00:22:37.066Z,6.20
2018-12-30T00:25:05.698Z,6.50
2018-12-30T00:27:34.158Z,3.67
2018-12-30T00:30:02.584Z,5.60
2018-12-30T00:32:31.122Z,5.13
2018-12-30T00:34:59.486Z,1.67
2018-12-30T00:37:27.962Z,3.40
2018-12-30T00:39:56.404Z,4.87
2018-12-30T00:42:24.884Z,9.23
2018-12-30T00:44:53.552Z,4.60
2018-12-30T00:47:21.943Z,6.80
2018-12-30T00:49:50.430Z,5.60
2018-12-30T00:52:18.871Z,6.53
2018-12-30T00:54:47.249Z,7.83
2018-12-30T00:57:15.659Z,2.53
2018-12-30T00:59:44.412Z,2.43
2018-12-30T01:02:13.012Z,6.80
2018-12-30T01:04:41.518Z,5.17
2018-12-30T01:07:11.041Z,1.57
2018-12-30T01:09:39.664Z,2.53
2018-12-30T01:12:08.108Z,6.93
2018-12-30T01:14:36.486Z,1.17
2018-12-30T01:17:04.883Z,4.40
2018-12-30T01:19:33.342Z,5.97
2018-12-30T01:22:01.703Z,1.40
2018-12-30T01:24:30.172Z,3.17
2018-12-30T01:26:58.616Z,3.33
2018-12-30T01:29:27.094Z,5.07
2018-12-30T01:31:55.584Z,3.33
2018-12-30T01:34:24.032Z,2.93
2018-12-30T01:36:52.491Z,9.20
2018-12-30T01:39:20.940Z,3.97
2018-12-30T01:41:49.503Z,2.53
2018-12-30T01:44:17.959Z,0.97
2018-12-30T01:46:46.412Z,5.90
2018-12-30T01:49:14.901Z,7.07
2018-12-30T01:51:43.323Z,3.60
2018-12-30T01:54:12.079Z,2.70
2018-12-30T01:56:40.504Z,1.67
2018-12-30T01:59:09.175Z,2.00
2018-12-30T02:01:37.604Z,0.70
2018-12-30T02:04:06.041Z,2.13
2018-12-30T02:06:34.432Z,1.87
2018-12-30T02:09:03.839Z,0.80
2018-12-30T02:11:32.235Z,0.50
2018-12-30T02:14:00.725Z,1.50
2018-12-30T02:16:29.123Z,2.77
2018-12-30T02:18:57.488Z,1.97
2018-12-30T02:21:26.149Z,1.60
2018-12-30T02:23:54.505Z,0.73
2018-12-30T02:26:22.904Z,2.67
2018-12-30T02:28:51.414Z,6.37
2018-12-30T02:31:19.851Z,5.00
2018-12-30T02:33:48.643Z,3.80
2018-12-30T02:36:17.062Z,0.60
2018-12-30T02:38:45.453Z,3.47
2018-12-30T02:41:13.907Z,4.03
2018-12-30T02:43:42.329Z,1.50
2018-12-30T02:46:11.110Z,3.37
2018-12-30T02:48:39.748Z,2.47
2018-12-30T02:51:08.143Z,3.23
2018-12-30T02:53:36.528Z,0.87
2018-12-30T02:56:05.010Z,2.63
2018-12-30T02:58:33.865Z,0.73
2018-12-30T03:01:02.303Z,2.33
2018-12-30T03:03:30.848Z,2.17
2018-12-30T03:05:59.307Z,5.77
2018-12-30T03:08:27.674Z,1.60
2018-12-30T03:10:56.470Z,4.00
2018-12-30T03:13:24.851Z,2.53
2018-12-30T03:15:53.231Z,6.63
2018-12-30T03:18:21.634Z,3.77
2018-12-30T03:20:50.020Z,7.33
2018-12-30T03:23:18.759Z,6.33
2018-12-30T03:25:47.139Z,4.10
2018-12-30T03:28:15.512Z,4.77
2018-12-30T03:30:44.256Z,3.83
2018-12-30T03:33:12.708Z,2.03
2018-12-30T03:35:41.115Z,3.83
2018-12-30T03:38:09.478Z,5.23
2018-12-30T03:40:37.854Z,5.37
2018-12-30T03:43:06.299Z,5.73
2018-12-30T03:45:34.694Z,3.63
2018-12-30T03:48:03.039Z,11.33
2018-12-30T03:50:31.543Z,15.03
2018-12-30T03:53:00.123Z,8.90
2018-12-30T03:55:30.984Z,8.27
2018-12-30T03:57:58.628Z,6.87
2018-12-30T04:00:27.099Z,3.57
2018-12-30T04:05:51.195Z,11.97
2018-12-30T04:08:19.555Z,4.00
2018-12-30T04:10:47.923Z,11.63
2018-12-30T04:13:55.996Z,8.70
2018-12-30T04:16:24.413Z,5.50
2018-12-30T04:18:52.796Z,8.50
2018-12-30T04:21:21.213Z,13.20
2018-12-30T04:23:49.586Z,15.43
2018-12-30T04:26:18.106Z,14.47
2018-12-30T04:28:46.479Z,19.43
2018-12-30T04:31:14.858Z,9.50
2018-12-30T04:33:43.235Z,8.03
2018-12-30T04:36:11.590Z,20.93
2018-12-30T04:38:40.055Z,5.50
2018-12-30T04:41:08.411Z,12.40
2018-12-30T04:43:36.780Z,19.13
2018-12-30T04:46:05.146Z,17.50
2018-12-30T04:48:35.557Z,12.57
2018-12-30T04:51:03.634Z,18.30
2018-12-30T04:53:31.999Z,18.93
2018-12-30T04:56:00.512Z,17.60
2018-12-30T04:58:28.891Z,7.77
2018-12-30T05:01:28.109Z,11.70
2018-12-30T05:03:56.514Z,10.97
2018-12-30T05:06:25.033Z,8.37
2018-12-30T05:08:53.425Z,11.30
2018-12-30T05:11:21.837Z,10.70
2018-12-30T05:13:50.183Z,7.07
2018-12-30T05:16:18.581Z,13.43
2018-12-30T05:18:46.938Z,10.37
2018-12-30T05:21:15.326Z,18.67
2018-12-30T05:23:43.761Z,15.50
2018-12-30T05:26:12.177Z,10.03
2018-12-30T05:28:40.547Z,4.97
2018-12-30T05:31:08.938Z,13.17
2018-12-30T05:33:37.341Z,11.90
2018-12-30T05:36:05.706Z,12.43
2018-12-30T05:38:34.103Z,13.07
2018-12-30T05:41:02.492Z,9.73
2018-12-30T05:43:30.860Z,9.50
2018-12-30T05:45:59.238Z,12.60
2018-12-30T05:48:27.594Z,7.73
2018-12-30T05:50:55.980Z,9.70
2018-12-30T05:53:26.691Z,4.37
2018-12-30T05:55:55.087Z,11.13
2018-12-30T05:58:23.492Z,5.20
2018-12-30T06:00:51.901Z,11.47
2018-12-30T06:03:20.263Z,13.13
2018-12-30T06:05:48.687Z,5.73
2018-12-30T06:08:17.143Z,6.33
2018-12-30T06:10:45.491Z,17.23
2018-12-30T06:13:13.867Z,9.13
2018-12-30T06:15:42.240Z,5.60
2018-12-30T06:18:10.609Z,9.90
2018-12-30T06:20:38.998Z,12.07
2018-12-30T06:23:07.375Z,10.37
2018-12-30T06:25:35.766Z,13.60
2018-12-30T06:28:04.456Z,6.63
2018-12-30T06:30:32.814Z,7.07
2018-12-30T06:33:01.189Z,5.70
2018-12-30T06:35:29.592Z,8.33
2018-12-30T06:37:57.952Z,9.70
2018-12-30T06:40:26.337Z,4.90
2018-12-30T06:42:54.703Z,11.83
2018-12-30T06:45:23.093Z,12.17
2018-12-30T06:47:51.447Z,8.47
2018-12-30T06:50:19.832Z,9.83
2018-12-30T06:52:48.209Z,7.60
2018-12-30T06:55:16.591Z,11.83
2018-12-30T06:57:44.958Z,9.70
2018-12-30T07:00:13.359Z,8.37
2018-12-30T07:02:41.747Z,10.27
2018-12-30T07:05:10.210Z,5.90
2018-12-30T07:07:38.607Z,7.67
2018-12-30T07:10:07.077Z,3.83
2018-12-30T07:12:35.440Z,3.80
2018-12-30T07:15:04.024Z,11.77
2018-12-30T07:17:32.371Z,1.67
2018-12-30T07:20:00.765Z,9.03
2018-12-30T07:22:29.140Z,6.70
2018-12-30T07:24:57.508Z,6.97
2018-12-30T07:27:25.870Z,7.53
2018-12-30T07:29:54.266Z,3.70
2018-12-30T07:32:22.626Z,9.37
2018-12-30T07:34:51.060Z,12.27
2018-12-30T07:37:19.477Z,9.90
2018-12-30T07:39:47.834Z,14.03
2018-12-30T07:42:16.245Z,7.70
2018-12-30T07:44:44.599Z,6.03
2018-12-30T07:47:13.179Z,17.90
2018-12-30T07:49:41.645Z,6.73
2018-12-30T07:52:10.043Z,13.17
2018-12-30T07:54:38.535Z,10.97
2018-12-30T07:57:06.910Z,8.27
2018-12-30T07:59:35.362Z,7.37
2018-12-30T08:02:03.727Z,10.10
2018-12-30T08:04:32.212Z,5.93
2018-12-30T08:07:00.653Z,4.00
2018-12-30T08:09:29.080Z,4.90
2018-12-30T08:11:57.426Z,10.60
2018-12-30T08:14:25.912Z,7.73
2018-12-30T08:16:54.411Z,11.47
2018-12-30T08:19:22.795Z,8.47
2018-12-30T08:21:51.158Z,10.97
2018-12-30T08:24:19.540Z,4.47
2018-12-30T08:26:47.891Z,9.53
2018-12-30T08:29:16.315Z,10.30
2018-12-30T08:31:47.780Z,7.23
2018-12-30T08:34:16.152Z,7.60
2018-12-30T08:36:52.984Z,15.87
2018-12-30T08:39:26.893Z,13.63
2018-12-30T08:41:58.600Z,8.37
2018-12-30T08:44:30.905Z,10.83
2018-12-30T08:47:06.245Z,12.07
2018-12-30T08:49:39.464Z,14.87
2018-12-30T08:52:10.497Z,8.33
2018-12-30T08:54:42.058Z,8.30
2018-12-30T08:57:14.301Z,6.63
2018-12-30T08:59:45.762Z,16.03
2018-12-30T09:02:18.155Z,13.77
2018-12-30T09:04:46.772Z,13.97
2018-12-30T09:07:15.181Z,18.40
2018-12-30T09:09:43.711Z,9.50
2018-12-30T09:12:12.069Z,8.47
2018-12-30T09:14:40.558Z,10.10
2018-12-30T09:17:08.944Z,22.57
2018-12-30T09:19:37.312Z,12.50
2018-12-30T09:22:05.819Z,13.70
2018-12-30T09:24:34.208Z,11.67
2018-12-30T09:27:02.597Z,6.50
2018-12-30T09:29:30.979Z,11.60
2018-12-30T09:31:59.432Z,15.63
2018-12-30T09:34:27.890Z,11.50
2018-12-30T09:36:56.269Z,6.77
2018-12-30T09:39:24.653Z,16.43
2018-12-30T09:41:53.068Z,10.30
2018-12-30T09:44:21.438Z,16.87
2018-12-30T09:46:49.994Z,14.27
2018-12-30T09:49:18.462Z,10.20
2018-12-30T09:51:46.841Z,8.03
2018-12-30T09:54:15.291Z,16.93
2018-12-30T09:56:43.737Z,14.00
2018-12-30T09:59:12.204Z,13.93
2018-12-30T10:01:40.590Z,16.97
2018-12-30T10:04:10.281Z,12.97
2018-12-30T10:06:41.674Z,22.03
2018-12-30T10:09:10.161Z,15.10
2018-12-30T10:11:38.533Z,6.50
2018-12-30T10:14:06.930Z,17.03
2018-12-30T10:16:37.578Z,11.37
2018-12-30T10:19:09.103Z,14.23
2018-12-30T10:21:39.130Z,15.90
2018-12-30T10:24:09.646Z,8.63
2018-12-30T10:26:40.393Z,9.73
2018-12-30T10:29:08.845Z,11.53
2018-12-30T10:31:38.879Z,9.40
2018-12-30T10:34:07.347Z,7.93
2018-12-30T10:36:35.943Z,12.60
2018-12-30T10:39:05.439Z,8.50
2018-12-30T10:41:33.885Z,14.97
2018-12-30T10:44:02.375Z,15.67
2018-12-30T10:46:31.013Z,15.93
2018-12-30T10:48:59.392Z,14.80
2018-12-30T10:51:27.833Z,13.83
2018-12-30T10:54:00.647Z,12.17
2018-12-30T10:56:26.526Z,7.63
2018-12-30T10:58:54.929Z,6.70
2018-12-30T11:01:23.324Z,10.47
2018-12-30T11:03:51.819Z,7.43
2018-12-30T11:06:20.290Z,18.17
2018-12-30T11:08:49.623Z,16.63
2018-12-30T11:11:18.081Z,8.17
2018-12-30T11:13:46.595Z,21.37
2018-12-30T11:16:18.368Z,11.47
2018-12-30T11:18:47.969Z,11.33
2018-12-30T11:21:16.542Z,6.43
2018-12-30T11:23:44.941Z,8.83
2018-12-30T11:26:13.526Z,6.77
2018-12-30T11:28:42.139Z,10.03
2018-12-30T11:31:10.844Z,8.97
2018-12-30T11:33:39.343Z,14.77
2018-12-30T11:36:07.788Z,6.03
2018-12-30T11:38:36.318Z,9.47
2018-12-30T11:41:04.834Z,5.83
2018-12-30T11:43:33.409Z,11.70
2018-12-30T11:46:01.993Z,12.70
2018-12-30T11:48:30.409Z,10.10
2018-12-30T11:50:58.841Z,13.17
2018-12-30T11:53:27.291Z,8.70
2018-12-30T11:55:55.796Z,8.67
2018-12-30T11:58:25.257Z,7.33
2018-12-30T12:00:56.586Z,3.50
2018-12-30T12:03:24.990Z,9.93
2018-12-30T12:05:53.543Z,18.37
2018-12-30T12:08:22.239Z,10.33
2018-12-30T12:10:50.631Z,7.10
2018-12-30T12:13:19.299Z,6.33
2018-12-30T12:15:47.711Z,10.60
2018-12-30T12:18:17.566Z,12.40
2018-12-30T12:20:48.890Z,8.00
2018-12-30T12:23:17.296Z,9.33
2018-12-30T12:25:45.719Z,9.10
2018-12-30T12:28:14.209Z,9.47
2018-12-30T12:30:42.602Z,4.63
2018-12-30T12:33:11.537Z,12.57
2018-12-30T12:35:41.071Z,6.97
2018-12-30T12:38:09.715Z,11.43
2018-12-30T12:40:38.191Z,7.57
2018-12-30T12:43:06.584Z,10.83
2018-12-30T12:45:35.143Z,19.23
2018-12-30T12:48:05.189Z,9.80
2018-12-30T12:50:33.581Z,9.27
2018-12-30T12:53:02.012Z,15.60
2018-12-30T12:55:30.645Z,10.57
2018-12-30T12:57:59.226Z,9.90
2018-12-30T13:00:27.699Z,15.90
2018-12-30T13:02:56.192Z,8.50
2018-12-30T13:05:24.657Z,7.73
2018-12-30T13:07:53.144Z,13.97
2018-12-30T13:10:21.636Z,8.73
2018-12-30T13:12:50.082Z,12.40
2018-12-30T13:15:18.529Z,9.47
2018-12-30T13:17:47.011Z,11.83
2018-12-30T13:20:15.432Z,16.67
2018-12-30T13:22:45.145Z,11.60
2018-12-30T13:25:13.587Z,8.10
2018-12-30T13:27:42.071Z,12.47
2018-12-30T13:30:10.531Z,14.43
2018-12-30T13:32:38.933Z,11.33
2018-12-30T13:35:07.366Z,15.03
2018-12-30T13:37:35.750Z,12.70
2018-12-30T13:40:04.243Z,18.30
2018-12-30T13:42:32.677Z,10.77
2018-12-30T13:45:01.146Z,13.90
2018-12-30T13:47:31.238Z,8.13
2018-12-30T13:49:59.664Z,7.23
2018-12-30T13:52:28.053Z,8.43
2018-12-30T13:54:56.567Z,11.17
2018-12-30T13:57:24.974Z,16.17
2018-12-30T13:59:53.364Z,10.03
2018-12-30T14:02:21.833Z,11.67
2018-12-30T14:04:50.234Z,11.40
2018-12-30T14:07:18.668Z,11.37
2018-12-30T14:09:47.043Z,21.93
2018-12-30T14:12:15.434Z,14.20
2018-12-30T14:14:43.958Z,18.50
2018-12-30T14:17:12.418Z,17.43
2018-12-30T14:19:40.911Z,11.13
2018-12-30T14:22:09.311Z,16.70
2018-12-30T14:24:37.740Z,10.20
2018-12-30T14:27:06.777Z,10.53
2018-12-30T14:29:35.205Z,15.07
2018-12-30T14:32:03.683Z,10.03
2018-12-30T14:34:32.085Z,14.20
2018-12-30T14:37:00.492Z,13.57
2018-12-30T14:39:28.865Z,10.03
2018-12-30T14:41:57.280Z,13.80
2018-12-30T14:44:25.855Z,15.07
2018-12-30T14:46:54.443Z,11.07
2018-12-30T14:49:23.287Z,13.43
2018-12-30T14:51:51.712Z,13.20
2018-12-30T14:54:20.177Z,13.37
2018-12-30T14:56:48.810Z,16.10
2018-12-30T14:59:17.178Z,12.70
2018-12-30T15:01:45.609Z,8.50
2018-12-30T15:04:14.013Z,14.27
2018-12-30T15:06:42.400Z,18.30
2018-12-30T15:09:10.929Z,12.20
2018-12-30T15:11:39.428Z,14.47
2018-12-30T15:14:07.839Z,13.77
2018-12-30T15:16:36.298Z,14.33
2018-12-30T15:19:04.861Z,8.43
2018-12-30T15:21:33.267Z,9.33
2018-12-30T15:24:01.739Z,15.53
2018-12-30T15:26:32.955Z,17.77
2018-12-30T15:29:01.365Z,21.80
2018-12-30T15:31:29.789Z,13.33
2018-12-30T15:33:58.336Z,8.03
2018-12-30T15:36:26.726Z,17.73
2018-12-30T15:38:55.141Z,16.13
2018-12-30T15:41:23.609Z,13.33
2018-12-30T15:43:52.015Z,19.83
2018-12-30T15:46:20.522Z,21.77
2018-12-30T15:48:48.905Z,21.37
2018-12-30T15:51:17.304Z,18.60
2018-12-30T15:53:45.684Z,20.00
2018-12-30T15:56:14.419Z,14.63
2018-12-30T15:58:42.805Z,25.43
2018-12-30T16:01:11.299Z,17.60
2018-12-30T16:03:42.137Z,14.77
2018-12-30T16:06:10.588Z,15.43
2018-12-30T16:08:39.008Z,11.67
2018-12-30T16:11:07.600Z,30.47
2018-12-30T16:13:36.453Z,18.87
2018-12-30T16:16:04.873Z,13.13
2018-12-30T16:18:33.287Z,17.83
2018-12-30T16:21:01.982Z,20.90
2018-12-30T16:23:36.746Z,14.43
2018-12-30T16:26:06.923Z,23.83
2018-12-30T16:28:35.364Z,21.27
2018-12-30T16:31:03.855Z,27.63
2018-12-30T16:33:32.637Z,21.90
2018-12-30T16:36:01.059Z,21.87
2018-12-30T16:38:29.673Z,18.70
2018-12-30T16:40:58.130Z,21.07
2018-12-30T16:43:26.614Z,13.20
2018-12-30T16:45:55.010Z,10.77
2018-12-30T16:48:23.390Z,11.03
2018-12-30T16:50:51.805Z,21.07
2018-12-30T16:53:20.324Z,16.80
2018-12-30T16:55:48.705Z,10.10
2018-12-30T16:58:17.280Z,20.67
2018-12-30T17:00:45.920Z,13.07
2018-12-30T17:03:14.372Z,16.90
2018-12-30T17:05:42.899Z,20.13
2018-12-30T17:08:11.284Z,15.83
2018-12-30T17:10:39.671Z,16.20
2018-12-30T17:13:08.090Z,12.60
2018-12-30T17:15:46.647Z,14.53
2018-12-30T17:18:18.509Z,16.10
2018-12-30T17:20:50.498Z,19.83
2018-12-30T17:23:23.136Z,18.67
2018-12-30T17:25:57.416Z,24.67
2018-12-30T17:28:41.917Z,12.03
2018-12-30T17:31:17.682Z,8.40
2018-12-30T17:33:54.253Z,18.40
2018-12-30T17:36:26.236Z,15.50
2018-12-30T17:39:02.259Z,9.10
2018-12-30T17:41:35.269Z,40.03
2018-12-30T17:44:09.974Z,45.37
2018-12-30T17:46:38.973Z,39.70
2018-12-30T17:49:07.404Z,30.13
2018-12-30T17:51:35.851Z,26.93
2018-12-30T17:54:04.241Z,19.90
2018-12-30T17:56:32.701Z,17.90
2018-12-30T17:59:10.416Z,16.17
2018-12-30T18:01:39.091Z,12.40
2018-12-30T18:04:07.524Z,13.43
2018-12-30T18:06:36.214Z,15.23
2018-12-30T18:09:05.784Z,16.97
2018-12-30T18:11:34.198Z,16.50
2018-12-30T18:14:02.698Z,20.60
2018-12-30T18:16:31.191Z,15.27
2018-12-30T18:18:59.618Z,11.37
2018-12-30T18:21:28.034Z,21.13
2018-12-30T18:23:56.423Z,22.90
2018-12-30T18:26:24.892Z,21.00
2018-12-30T18:28:53.380Z,26.07
2018-12-30T18:31:21.823Z,17.60
2018-12-30T18:33:50.235Z,18.40
2018-12-30T18:36:18.620Z,30.57
2018-12-30T18:38:47.117Z,17.43
2018-12-30T18:41:15.558Z,15.87
2018-12-30T18:43:43.943Z,25.50
2018-12-30T18:46:12.734Z,11.47
2018-12-30T18:48:41.481Z,16.80
2018-12-30T18:51:09.897Z,17.97
2018-12-30T18:53:38.404Z,8.40
2018-12-30T18:56:07.238Z,13.07
2018-12-30T18:58:35.811Z,13.80
2018-12-30T19:01:04.216Z,13.00
2018-12-30T19:03:32.745Z,17.00
2018-12-30T19:06:01.253Z,14.33
2018-12-30T19:08:30.561Z,14.87
2018-12-30T19:10:59.037Z,22.57
2018-12-30T19:13:27.616Z,15.50
2018-12-30T19:15:56.103Z,13.60
2018-12-30T19:18:24.559Z,24.83
2018-12-30T19:20:53.092Z,17.23
2018-12-30T19:23:21.524Z,21.07
2018-12-30T19:25:49.954Z,42.13
2018-12-30T19:28:19.525Z,17.30
2018-12-30T19:30:48.134Z,19.90
2018-12-30T19:33:16.539Z,17.50
2018-12-30T19:35:44.957Z,13.53
2018-12-30T19:38:13.391Z,22.63
2018-12-30T19:40:41.987Z,25.23
2018-12-30T19:43:10.469Z,19.43
2018-12-30T19:45:38.950Z,25.80
2018-12-30T19:48:07.407Z,18.60
2018-12-30T19:50:35.879Z,27.60
2018-12-30T19:53:04.422Z,16.40
2018-12-30T19:55:32.930Z,15.83
2018-12-30T19:58:01.445Z,19.47
2018-12-30T20:00:29.863Z,22.90
2018-12-30T20:02:58.567Z,9.83
2018-12-30T20:05:27.027Z,21.33
2018-12-30T20:07:55.444Z,22.90
2018-12-30T20:10:23.926Z,21.50
2018-12-30T20:12:52.514Z,20.90
2018-12-30T20:15:21.681Z,19.07
2018-12-30T20:17:50.240Z,28.63
2018-12-30T20:20:18.739Z,14.77
2018-12-30T20:22:47.323Z,16.87
2018-12-30T20:25:15.916Z,23.80
2018-12-30T20:27:45.441Z,19.40
2018-12-30T20:30:14.058Z,20.60
2018-12-30T20:32:42.600Z,17.23
2018-12-30T20:35:11.216Z,25.40
2018-12-30T20:37:39.741Z,21.60
2018-12-30T20:40:08.441Z,19.90
2018-12-30T20:42:37.150Z,26.70
2018-12-30T20:45:05.836Z,22.20
2018-12-30T20:47:34.649Z,31.83
2018-12-30T20:50:03.357Z,13.53
2018-12-30T20:52:31.998Z,13.83
2018-12-30T20:55:00.567Z,24.33
2018-12-30T20:57:29.133Z,14.00
2018-12-30T20:59:57.655Z,23.83
2018-12-30T21:02:26.138Z,16.63
2018-12-30T21:04:54.926Z,13.57
2018-12-30T21:07:23.461Z,18.57
2018-12-30T21:09:52.086Z,15.43
2018-12-30T21:12:20.728Z,16.13
2018-12-30T21:14:49.299Z,17.97
2018-12-30T21:17:17.987Z,13.53
2018-12-30T21:19:46.497Z,16.10
2018-12-30T21:22:15.095Z,16.10
2018-12-30T21:24:43.670Z,15.90
2018-12-30T21:27:12.131Z,22.43
2018-12-30T21:29:40.732Z,20.47
2018-12-30T21:32:09.185Z,21.83
2018-12-30T21:34:37.641Z,14.10
2018-12-30T21:37:06.258Z,17.40
2018-12-30T21:39:34.950Z,19.23
2018-12-30T21:42:03.414Z,19.53
2018-12-30T21:44:34.130Z,15.67
2018-12-30T21:47:05.069Z,22.80
2018-12-30T21:49:33.879Z,19.53
2018-12-30T21:52:02.417Z,19.37
2018-12-30T21:54:30.825Z,15.83
2018-12-30T21:56:59.327Z,16.53
2018-12-30T21:59:27.724Z,22.70
2018-12-30T22:01:56.157Z,14.77
2018-12-30T22:04:24.618Z,17.73
2018-12-30T22:06:53.044Z,17.57
2018-12-30T22:09:21.477Z,12.20
2018-12-30T22:11:49.953Z,21.63
2018-12-30T22:14:18.347Z,15.17
2018-12-30T22:16:46.846Z,20.57
2018-12-30T22:19:15.417Z,26.73
2018-12-30T22:21:43.829Z,15.07
2018-12-30T22:24:12.325Z,18.50
2018-12-30T22:26:40.725Z,23.13
2018-12-30T22:29:09.229Z,14.53
2018-12-30T22:31:37.632Z,16.53
2018-12-30T22:34:06.075Z,14.40
2018-12-30T22:36:34.470Z,16.40
2018-12-30T22:39:05.635Z,13.90
2018-12-30T22:41:34.152Z,15.47
2018-12-30T22:44:02.796Z,25.00
2018-12-30T22:46:31.215Z,18.13
2018-12-30T22:48:59.619Z,30.17
2018-12-30T22:51:28.397Z,16.20
2018-12-30T22:53:56.805Z,16.33
2018-12-30T22:56:25.254Z,28.17
2018-12-30T22:58:53.746Z,16.93
2018-12-30T23:01:26.227Z,14.87
2018-12-30T23:03:54.732Z,22.03
2018-12-30T23:06:23.254Z,17.90
2018-12-30T23:08:51.871Z,17.20
2018-12-30T23:11:20.439Z,11.87
2018-12-30T23:13:48.839Z,17.93
2018-12-30T23:16:17.220Z,23.77
2018-12-30T23:18:47.316Z,26.10
2018-12-30T23:21:15.720Z,20.07
2018-12-30T23:23:44.081Z,18.10
2018-12-30T23:26:12.523Z,26.43
2018-12-30T23:28:40.951Z,28.13
2018-12-30T23:31:09.412Z,19.73
2018-12-30T23:33:37.861Z,15.53
2018-12-30T23:36:09.027Z,17.43
2018-12-30T23:38:38.766Z,16.53
2018-12-30T23:41:07.899Z,15.27
2018-12-30T23:43:38.434Z,22.87
2018-12-30T23:46:09.960Z,23.13
2018-12-30T23:48:47.252Z,22.93
2018-12-30T23:51:15.661Z,30.53
2018-12-30T23:53:44.268Z,24.33
2018-12-30T23:56:12.673Z,17.73
2018-12-30T23:58:41.914Z,20.23
